createdAt,value
2023-02-06T00:00:55.830Z,30.35
2023-02-06T00:03:23.977Z,30.25
2023-02-06T00:05:56.694Z,30.48
2023-02-06T00:08:24.995Z,27.38
2023-02-06T00:10:53.198Z,28.00
2023-02-06T00:13:21.532Z,27.02
2023-02-06T00:15:49.747Z,29.38
2023-02-06T00:18:19.402Z,26.33
2023-02-06T00:20:47.635Z,27.58
2023-02-06T00:23:16.014Z,25.58
2023-02-06T00:25:44.280Z,25.58
2023-02-06T00:28:12.469Z,25.30
2023-02-06T00:30:40.909Z,28.25
2023-02-06T00:33:09.184Z,24.88
2023-02-06T00:35:38.912Z,24.83
2023-02-06T00:38:08.185Z,25.88
2023-02-06T00:40:36.373Z,27.45
2023-02-06T00:43:04.564Z,26.20
2023-02-06T00:45:32.891Z,25.52
2023-02-06T00:48:01.252Z,24.50
2023-02-06T00:50:29.494Z,26.73
2023-02-06T00:52:59.032Z,23.77
2023-02-06T00:55:28.602Z,23.42
2023-02-06T00:57:56.824Z,23.42
2023-02-06T01:00:25.219Z,24.20
2023-02-06T01:02:53.420Z,22.38
2023-02-06T01:05:22.271Z,22.38
2023-02-06T01:07:53.384Z,23.77
2023-02-06T01:10:23.296Z,22.17
2023-02-06T01:12:51.588Z,22.88
2023-02-06T01:15:19.937Z,21.55
2023-02-06T01:17:48.153Z,22.75
2023-02-06T01:20:16.336Z,21.75
2023-02-06T01:22:44.618Z,21.83
2023-02-06T01:25:13.545Z,22.42
2023-02-06T01:27:43.218Z,20.50
2023-02-06T01:30:12.669Z,20.98
2023-02-06T01:32:41.735Z,19.88
2023-02-06T01:35:10.849Z,20.42
2023-02-06T01:37:39.238Z,18.17
2023-02-06T01:40:09.424Z,18.77
2023-02-06T01:42:37.834Z,18.33
2023-02-06T01:45:53.120Z,21.10
2023-02-06T01:48:22.964Z,19.08
2023-02-06T01:50:52.566Z,18.52
2023-02-06T01:53:22.326Z,18.85
2023-02-06T01:55:51.152Z,18.83
2023-02-06T01:58:22.358Z,19.17
2023-02-06T02:00:52.042Z,19.25
2023-02-06T02:03:20.287Z,17.75
2023-02-06T02:05:48.472Z,18.98
2023-02-06T02:08:18.792Z,17.73
2023-02-06T02:10:47.004Z,17.95
2023-02-06T02:13:15.388Z,18.02
2023-02-06T02:15:50.554Z,18.23
2023-02-06T02:18:27.464Z,16.40
2023-02-06T02:21:06.786Z,17.73
2023-02-06T02:23:36.846Z,16.48
2023-02-06T02:26:37.456Z,16.60
2023-02-06T02:29:37.952Z,16.38
2023-02-06T02:32:40.764Z,16.83
2023-02-06T02:35:16.047Z,15.07
2023-02-06T02:37:50.538Z,16.35
2023-02-06T02:40:23.257Z,15.75
2023-02-06T02:42:55.488Z,14.88
2023-02-06T02:45:25.965Z,14.52
2023-02-06T02:47:57.347Z,14.55
2023-02-06T02:50:27.125Z,15.57
2023-02-06T02:52:55.267Z,14.82
2023-02-06T02:55:24.148Z,14.85
2023-02-06T02:58:00.224Z,14.30
2023-02-06T03:00:28.496Z,14.65
2023-02-06T03:02:56.656Z,13.63
2023-02-06T03:05:26.391Z,13.68
2023-02-06T03:08:03.180Z,14.40
2023-02-06T03:10:34.977Z,14.60
2023-02-06T03:13:05.412Z,14.13
2023-02-06T03:15:37.845Z,14.82
2023-02-06T03:18:09.033Z,13.23
2023-02-06T03:20:39.099Z,14.70
2023-02-06T03:23:07.289Z,15.55
2023-02-06T03:25:37.509Z,13.93
2023-02-06T03:28:06.202Z,12.80
2023-02-06T03:30:34.433Z,13.63
2023-02-06T03:33:04.339Z,12.60
2023-02-06T03:35:34.166Z,13.35
2023-02-06T03:38:04.165Z,12.85
2023-02-06T03:40:32.333Z,13.73
2023-02-06T03:43:02.110Z,12.27
2023-02-06T03:45:31.526Z,12.63
2023-02-06T03:48:02.584Z,11.65
2023-02-06T03:50:31.090Z,11.35
2023-02-06T03:52:59.621Z,11.52
2023-02-06T03:55:29.334Z,12.05
2023-02-06T03:57:59.190Z,12.13
2023-02-06T04:00:27.552Z,11.18
2023-02-06T04:02:55.849Z,11.63
2023-02-06T04:05:24.096Z,11.23
2023-02-06T04:07:53.994Z,12.38
2023-02-06T04:10:22.265Z,10.80
2023-02-06T04:12:51.869Z,11.38
2023-02-06T04:15:20.337Z,12.00
2023-02-06T04:17:59.541Z,11.50
2023-02-06T04:20:29.236Z,10.57
2023-02-06T04:22:57.559Z,12.75
2023-02-06T04:25:25.846Z,11.27
2023-02-06T04:27:55.444Z,11.55
2023-02-06T04:30:23.765Z,11.05
2023-02-06T04:32:52.044Z,11.50
2023-02-06T04:35:20.437Z,12.25
2023-02-06T04:37:48.810Z,10.40
2023-02-06T04:40:17.302Z,10.80
2023-02-06T04:42:45.526Z,10.85
2023-02-06T04:45:15.272Z,10.18
2023-02-06T04:47:43.713Z,12.25
2023-02-06T04:50:12.042Z,10.57
2023-02-06T04:52:40.274Z,9.52
2023-02-06T04:55:09.109Z,10.43
2023-02-06T04:57:37.423Z,10.02
2023-02-06T05:00:06.240Z,12.15
2023-02-06T05:02:39.786Z,9.20
2023-02-06T05:05:09.210Z,9.82
2023-02-06T05:07:37.395Z,10.52
2023-02-06T05:10:05.964Z,10.40
2023-02-06T05:12:34.676Z,10.32
2023-02-06T05:15:02.975Z,9.98
2023-02-06T05:17:31.139Z,11.73
2023-02-06T05:20:00.807Z,9.48
2023-02-06T05:22:29.096Z,10.82
2023-02-06T05:24:57.333Z,9.48
2023-02-06T05:27:25.900Z,10.50
2023-02-06T05:29:54.138Z,9.90
2023-02-06T05:32:22.376Z,11.18
2023-02-06T05:34:50.598Z,13.05
2023-02-06T05:37:20.248Z,15.18
2023-02-06T05:39:48.585Z,12.88
2023-02-06T05:42:16.757Z,11.95
2023-02-06T05:44:45.205Z,12.57
2023-02-06T05:47:13.518Z,11.73
2023-02-06T05:49:44.102Z,16.08
2023-02-06T05:52:12.434Z,18.65
2023-02-06T05:54:42.042Z,23.42
2023-02-06T05:57:10.515Z,23.92
2023-02-06T05:59:38.767Z,32.17
2023-02-06T06:02:07.360Z,37.80
2023-02-06T06:04:35.553Z,33.15
2023-02-06T06:07:03.939Z,27.13
2023-02-06T06:09:32.098Z,29.75
2023-02-06T06:12:01.729Z,27.70
2023-02-06T06:14:29.979Z,43.20
2023-02-06T06:16:58.165Z,54.40
2023-02-06T06:19:26.404Z,45.78
2023-02-06T06:21:55.581Z,54.08
2023-02-06T06:24:25.586Z,48.78
2023-02-06T06:26:54.110Z,49.95
2023-02-06T06:29:24.193Z,53.40
2023-02-06T06:31:52.894Z,50.05
2023-02-06T06:34:21.015Z,55.78
2023-02-06T06:36:49.272Z,45.35
2023-02-06T06:39:17.413Z,49.22
2023-02-06T06:41:45.960Z,60.35
2023-02-06T06:44:14.117Z,66.55
2023-02-06T06:46:43.815Z,55.28
2023-02-06T06:49:12.051Z,43.90
2023-02-06T06:51:40.218Z,47.20
2023-02-06T06:54:08.374Z,56.55
2023-02-06T06:56:36.685Z,55.15
2023-02-06T06:59:04.930Z,56.65
2023-02-06T07:01:33.098Z,61.35
2023-02-06T07:04:02.727Z,58.20
2023-02-06T07:06:31.051Z,61.72
2023-02-06T07:08:59.291Z,55.55
2023-02-06T07:11:27.518Z,68.43
2023-02-06T07:13:55.707Z,68.80
2023-02-06T07:16:24.667Z,69.10
2023-02-06T07:18:52.913Z,70.82
2023-02-06T07:21:22.601Z,64.15
2023-02-06T07:23:51.131Z,70.80
2023-02-06T07:26:19.352Z,71.47
2023-02-06T07:28:49.318Z,90.60
2023-02-06T07:31:17.670Z,81.43
2023-02-06T07:33:46.025Z,79.07
2023-02-06T07:36:14.202Z,80.18
2023-02-06T07:38:43.876Z,85.70
2023-02-06T07:41:12.833Z,83.40
2023-02-06T07:43:41.154Z,79.97
2023-02-06T07:46:09.392Z,83.63
2023-02-06T07:48:38.016Z,82.63
2023-02-06T07:51:07.142Z,80.15
2023-02-06T07:53:35.561Z,79.28
2023-02-06T07:56:10.305Z,83.22
2023-02-06T07:58:38.888Z,77.18
2023-02-06T08:01:07.384Z,73.90
2023-02-06T08:03:35.677Z,74.93
2023-02-06T08:06:09.117Z,71.47
2023-02-06T08:08:37.354Z,70.80
2023-02-06T08:11:08.060Z,68.78
2023-02-06T08:13:36.532Z,63.50
2023-02-06T08:16:06.539Z,69.97
2023-02-06T08:18:34.886Z,81.65
2023-02-06T08:21:03.610Z,84.15
2023-02-06T08:23:31.804Z,87.55
2023-02-06T08:26:04.086Z,88.13
2023-02-06T08:28:35.286Z,88.10
2023-02-06T08:31:05.880Z,84.07
2023-02-06T08:33:35.610Z,83.10
2023-02-06T08:36:04.086Z,86.72
2023-02-06T08:38:32.271Z,83.93
2023-02-06T08:41:00.610Z,81.45
2023-02-06T08:43:28.790Z,84.18
2023-02-06T08:45:59.663Z,74.43
2023-02-06T08:48:28.072Z,69.05
2023-02-06T08:51:03.895Z,66.82
2023-02-06T08:53:32.101Z,62.40
2023-02-06T08:56:00.708Z,60.58
2023-02-06T08:58:28.920Z,57.28
2023-02-06T09:01:00.076Z,62.22
2023-02-06T09:03:28.635Z,74.60
2023-02-06T09:06:09.381Z,89.00
2023-02-06T09:08:38.575Z,86.03
2023-02-06T09:11:07.797Z,89.72
2023-02-06T09:13:36.134Z,84.85
2023-02-06T09:16:06.692Z,75.93
2023-02-06T09:18:35.218Z,70.57
2023-02-06T09:21:08.244Z,71.25
2023-02-06T09:23:36.732Z,69.22
2023-02-06T09:26:05.184Z,69.85
2023-02-06T09:28:33.413Z,68.82
2023-02-06T09:31:01.728Z,72.95
2023-02-06T09:33:31.367Z,78.70
2023-02-06T09:36:04.168Z,76.95
2023-02-06T09:38:32.358Z,84.95
2023-02-06T09:41:01.047Z,78.40
2023-02-06T09:43:29.289Z,71.13
2023-02-06T09:45:59.302Z,62.80
2023-02-06T09:48:28.619Z,66.28
2023-02-06T09:51:02.994Z,70.07
2023-02-06T09:53:33.565Z,60.00
2023-02-06T09:56:04.418Z,64.32
2023-02-06T09:58:37.760Z,59.80
2023-02-06T10:01:08.898Z,59.28
2023-02-06T10:03:45.323Z,56.92
2023-02-06T10:06:19.194Z,53.33
2023-02-06T10:08:52.115Z,52.08
2023-02-06T10:11:35.108Z,54.35
2023-02-06T10:14:05.498Z,54.05
2023-02-06T10:16:37.986Z,52.35
2023-02-06T10:19:08.814Z,54.13
2023-02-06T10:21:41.533Z,51.22
2023-02-06T10:24:11.911Z,49.78
2023-02-06T10:26:40.852Z,47.42
2023-02-06T10:29:16.772Z,50.90
2023-02-06T10:32:00.693Z,49.67
2023-02-06T10:34:38.990Z,46.35
2023-02-06T10:37:16.968Z,44.53
2023-02-06T10:40:03.647Z,45.03
2023-02-06T10:42:39.117Z,45.42
2023-02-06T10:45:19.702Z,43.88
2023-02-06T10:47:51.275Z,43.28
2023-02-06T10:50:24.045Z,43.53
2023-02-06T10:52:53.690Z,40.40
2023-02-06T10:55:24.376Z,40.28
2023-02-06T10:57:58.113Z,38.25
2023-02-06T11:00:27.054Z,43.38
2023-02-06T11:03:07.196Z,38.33
2023-02-06T11:05:37.003Z,38.88
2023-02-06T11:08:11.133Z,39.70
2023-02-06T11:10:39.647Z,42.70
2023-02-06T11:13:09.472Z,40.10
2023-02-06T11:15:40.693Z,39.60
2023-02-06T11:18:10.630Z,48.60
2023-02-06T11:20:39.785Z,54.33
2023-02-06T11:23:20.081Z,52.85
2023-02-06T11:25:50.885Z,52.50
2023-02-06T11:28:19.965Z,51.55
2023-02-06T11:30:55.923Z,53.30
2023-02-06T11:33:26.859Z,54.42
2023-02-06T11:35:56.046Z,52.58
2023-02-06T11:38:28.034Z,48.70
2023-02-06T11:40:57.862Z,51.13
2023-02-06T11:43:27.359Z,50.10
2023-02-06T11:46:08.741Z,50.75
2023-02-06T11:48:39.001Z,50.63
2023-02-06T11:51:07.651Z,55.97
2023-02-06T11:53:37.314Z,53.05
2023-02-06T11:56:08.208Z,54.20
2023-02-06T11:58:36.647Z,54.92
2023-02-06T12:01:06.766Z,51.65
2023-02-06T12:03:37.354Z,52.92
2023-02-06T12:06:11.416Z,55.88
2023-02-06T12:08:49.593Z,55.03
2023-02-06T12:11:23.285Z,55.35
2023-02-06T12:13:53.745Z,58.85
2023-02-06T12:16:22.030Z,60.17
2023-02-06T12:18:52.428Z,55.00
2023-02-06T12:21:27.172Z,59.88
2023-02-06T12:23:58.741Z,58.05
2023-02-06T12:26:29.947Z,56.55
2023-02-06T12:29:00.360Z,54.90
2023-02-06T12:31:32.355Z,56.30
2023-02-06T12:34:04.747Z,54.55
2023-02-06T12:36:36.816Z,53.80
2023-02-06T12:39:07.607Z,53.22
2023-02-06T12:41:48.337Z,50.63
2023-02-06T12:44:23.746Z,52.20
2023-02-06T12:46:53.778Z,53.65
2023-02-06T12:49:23.754Z,51.67
2023-02-06T12:51:55.178Z,55.75
2023-02-06T12:54:28.447Z,50.63
2023-02-06T12:56:58.472Z,54.67
2023-02-06T12:59:57.202Z,69.43
2023-02-06T13:02:36.801Z,68.20
2023-02-06T13:05:05.970Z,69.22
2023-02-06T13:07:41.580Z,72.43
2023-02-06T13:10:20.729Z,68.43
2023-02-06T13:12:54.752Z,70.93
2023-02-06T13:15:24.125Z,66.32
2023-02-06T13:17:52.735Z,69.38
2023-02-06T13:20:21.321Z,69.78
2023-02-06T13:22:51.181Z,74.03
2023-02-06T13:25:50.486Z,70.20
2023-02-06T13:28:40.965Z,68.70
2023-02-06T13:31:28.017Z,67.65
2023-02-06T13:33:58.197Z,64.70
2023-02-06T13:36:28.260Z,65.65
2023-02-06T13:38:57.383Z,65.60
2023-02-06T13:41:32.039Z,63.67
2023-02-06T13:44:02.055Z,62.90
2023-02-06T13:46:41.099Z,64.45
2023-02-06T13:49:19.636Z,63.17
2023-02-06T13:51:50.404Z,60.92
2023-02-06T13:54:55.425Z,61.63
2023-02-06T13:57:31.188Z,60.47
2023-02-06T14:00:01.153Z,57.58
2023-02-06T14:02:35.425Z,60.78
2023-02-06T14:05:04.411Z,58.20
2023-02-06T14:07:50.705Z,55.40
2023-02-06T14:10:33.005Z,57.38
2023-02-06T14:13:09.283Z,56.63
2023-02-06T14:15:41.045Z,51.97
2023-02-06T14:18:20.511Z,54.45
2023-02-06T14:20:50.801Z,55.20
2023-02-06T14:23:25.965Z,55.05
2023-02-06T14:26:00.761Z,48.67
2023-02-06T14:28:34.813Z,51.58
2023-02-06T14:31:10.188Z,52.28
2023-02-06T14:33:50.332Z,50.63
2023-02-06T14:36:25.501Z,52.92
2023-02-06T14:39:08.520Z,52.58
2023-02-06T14:41:39.713Z,51.80
2023-02-06T14:44:14.514Z,51.53
2023-02-06T14:46:44.085Z,51.13
2023-02-06T14:49:15.818Z,50.90
2023-02-06T14:51:44.061Z,54.83
2023-02-06T14:54:29.233Z,63.05
2023-02-06T14:56:57.716Z,57.95
2023-02-06T14:59:27.431Z,57.20
2023-02-06T15:01:56.399Z,62.40
2023-02-06T15:04:26.092Z,57.75
2023-02-06T15:06:55.185Z,59.22
2023-02-06T15:09:27.554Z,55.08
2023-02-06T15:11:58.275Z,56.85
2023-02-06T15:14:28.973Z,56.78
2023-02-06T15:16:59.915Z,54.10
2023-02-06T15:19:29.434Z,55.78
2023-02-06T15:22:00.961Z,57.65
2023-02-06T15:24:52.809Z,64.22
2023-02-06T15:27:27.425Z,58.97
2023-02-06T15:29:57.129Z,63.65
2023-02-06T15:32:28.820Z,63.40
2023-02-06T15:34:57.112Z,63.60
2023-02-06T15:37:27.373Z,66.53
2023-02-06T15:39:55.707Z,68.38
2023-02-06T15:42:24.249Z,69.28
2023-02-06T15:45:02.979Z,64.85
2023-02-06T15:47:31.200Z,65.45
2023-02-06T15:50:00.675Z,75.82
2023-02-06T15:52:37.249Z,78.88
2023-02-06T15:55:06.093Z,78.03
2023-02-06T15:57:35.477Z,71.85
2023-02-06T16:00:09.747Z,75.43
2023-02-06T16:02:41.271Z,72.40
2023-02-06T16:05:09.812Z,72.97
2023-02-06T16:07:38.483Z,73.97
2023-02-06T16:10:22.584Z,71.63
2023-02-06T16:12:51.217Z,83.55
2023-02-06T16:15:27.512Z,95.80
2023-02-06T16:17:56.143Z,99.55
2023-02-06T16:20:33.493Z,94.65
2023-02-06T16:23:21.512Z,93.13
2023-02-06T16:25:50.317Z,95.22
2023-02-06T16:28:22.952Z,89.55
2023-02-06T16:30:57.430Z,88.60
2023-02-06T16:33:33.977Z,86.88
2023-02-06T16:36:02.179Z,82.85
2023-02-06T16:38:30.542Z,81.07
2023-02-06T16:40:58.833Z,80.93
2023-02-06T16:43:28.039Z,77.82
2023-02-06T16:46:00.636Z,78.97
2023-02-06T16:48:29.343Z,75.90
2023-02-06T16:50:57.547Z,76.18
2023-02-06T16:53:26.251Z,75.53
2023-02-06T16:55:54.427Z,72.40
2023-02-06T16:58:23.616Z,74.00
2023-02-06T17:00:52.914Z,70.07
2023-02-06T17:03:22.554Z,72.25
2023-02-06T17:05:53.689Z,72.28
2023-02-06T17:08:24.517Z,67.55
2023-02-06T17:10:53.192Z,71.50
2023-02-06T17:13:22.228Z,65.63
2023-02-06T17:15:52.439Z,66.13
2023-02-06T17:18:22.604Z,59.53
2023-02-06T17:20:51.805Z,61.10
2023-02-06T17:23:20.093Z,59.60
2023-02-06T17:25:48.591Z,60.88
2023-02-06T17:28:18.236Z,61.58
2023-02-06T17:30:46.858Z,58.33
2023-02-06T17:33:15.160Z,57.10
2023-02-06T17:35:46.348Z,57.17
2023-02-06T17:38:14.757Z,57.55
2023-02-06T17:40:42.982Z,57.17
2023-02-06T17:43:11.239Z,54.47
2023-02-06T17:45:39.838Z,51.97
2023-02-06T17:48:08.333Z,57.55
2023-02-06T17:50:37.770Z,58.72
2023-02-06T17:53:08.907Z,52.30
2023-02-06T17:55:37.530Z,55.42
2023-02-06T17:58:05.740Z,54.83
2023-02-06T18:00:34.395Z,51.95
2023-02-06T18:03:02.850Z,49.85
2023-02-06T18:05:31.277Z,50.95
2023-02-06T18:07:59.474Z,51.33
2023-02-06T18:10:29.327Z,49.72
2023-02-06T18:12:58.086Z,50.72
2023-02-06T18:15:26.305Z,49.47
2023-02-06T18:17:55.164Z,52.75
2023-02-06T18:20:23.563Z,51.92
2023-02-06T18:22:51.790Z,53.53
2023-02-06T18:25:20.248Z,60.35
2023-02-06T18:27:49.967Z,57.83
2023-02-06T18:30:19.368Z,56.97
2023-02-06T18:32:47.673Z,56.83
2023-02-06T18:35:16.566Z,59.55
2023-02-06T18:37:44.989Z,61.25
2023-02-06T18:40:13.673Z,58.15
2023-02-06T18:42:55.335Z,57.28
2023-02-06T18:45:26.012Z,59.13
2023-02-06T18:47:55.676Z,58.35
2023-02-06T18:50:24.130Z,55.58
2023-02-06T18:52:52.505Z,60.72
2023-02-06T18:55:21.048Z,58.97
2023-02-06T18:57:49.695Z,55.65
2023-02-06T19:00:19.038Z,58.08
2023-02-06T19:02:48.769Z,59.40
2023-02-06T19:05:17.027Z,54.33
2023-02-06T19:07:47.006Z,59.58
2023-02-06T19:10:16.388Z,58.13
2023-02-06T19:12:44.763Z,63.28
2023-02-06T19:15:13.417Z,60.83
2023-02-06T19:17:41.696Z,61.42
2023-02-06T19:20:13.284Z,68.40
2023-02-06T19:22:42.278Z,70.32
2023-02-06T19:25:14.045Z,71.00
2023-02-06T19:27:42.577Z,65.88
2023-02-06T19:30:13.149Z,61.40
2023-02-06T19:32:41.394Z,60.42
2023-02-06T19:35:12.108Z,61.17
2023-02-06T19:37:40.450Z,62.22
2023-02-06T19:40:09.229Z,63.38
2023-02-06T19:42:37.597Z,59.88
2023-02-06T19:45:07.311Z,61.35
2023-02-06T19:47:36.279Z,59.63
2023-02-06T19:50:04.772Z,58.33
2023-02-06T19:52:46.658Z,60.65
2023-02-06T19:55:16.487Z,57.22
2023-02-06T19:57:44.696Z,61.75
2023-02-06T20:00:14.168Z,58.83
2023-02-06T20:02:42.541Z,57.35
2023-02-06T20:05:10.966Z,57.20
2023-02-06T20:07:39.221Z,56.47
2023-02-06T20:10:08.052Z,56.17
2023-02-06T20:12:37.648Z,56.50
2023-02-06T20:15:06.597Z,55.30
2023-02-06T20:17:34.772Z,57.63
2023-02-06T20:20:03.227Z,55.28
2023-02-06T20:22:31.416Z,57.00
2023-02-06T20:24:59.669Z,52.42
2023-02-06T20:27:27.881Z,52.28
2023-02-06T20:29:57.742Z,53.83
2023-02-06T20:32:26.168Z,53.10
2023-02-06T20:34:54.436Z,55.08
2023-02-06T20:37:22.610Z,58.17
2023-02-06T20:39:50.828Z,59.60
2023-02-06T20:42:19.541Z,56.03
2023-02-06T20:44:47.661Z,52.75
2023-02-06T20:47:17.620Z,55.25
2023-02-06T20:49:45.803Z,55.22
2023-02-06T20:52:14.197Z,53.00
2023-02-06T20:54:42.841Z,56.05
2023-02-06T20:57:11.131Z,52.15
2023-02-06T20:59:40.130Z,50.83
2023-02-06T21:02:08.357Z,52.47
2023-02-06T21:04:38.182Z,50.22
2023-02-06T21:07:06.454Z,52.70
2023-02-06T21:09:35.325Z,51.45
2023-02-06T21:12:03.538Z,51.75
2023-02-06T21:14:32.125Z,50.63
2023-02-06T21:17:00.323Z,48.60
2023-02-06T21:19:29.358Z,47.30
2023-02-06T21:21:58.976Z,48.03
2023-02-06T21:24:27.280Z,47.28
2023-02-06T21:26:55.475Z,46.25
2023-02-06T21:29:24.101Z,46.85
2023-02-06T21:32:03.669Z,45.72
2023-02-06T21:34:39.859Z,47.75
2023-02-06T21:37:09.487Z,47.75
2023-02-06T21:39:38.958Z,48.28
2023-02-06T21:42:07.268Z,43.42
2023-02-06T21:44:37.164Z,45.85
2023-02-06T21:47:05.584Z,44.20
2023-02-06T21:49:34.004Z,43.88
2023-02-06T21:52:02.260Z,46.20
2023-02-06T21:54:31.884Z,43.50
2023-02-06T21:57:00.167Z,43.97
2023-02-06T21:59:28.353Z,41.42
2023-02-06T22:01:56.758Z,41.38
2023-02-06T22:04:24.903Z,40.78
2023-02-06T22:06:53.201Z,42.38
2023-02-06T22:09:21.685Z,40.72
2023-02-06T22:11:51.550Z,38.88
2023-02-06T22:14:19.832Z,40.63
2023-02-06T22:16:48.035Z,37.38
2023-02-06T22:19:16.540Z,39.35
2023-02-06T22:21:45.169Z,40.75
2023-02-06T22:24:13.407Z,38.63
2023-02-06T22:26:41.671Z,38.83
2023-02-06T22:29:12.696Z,38.78
2023-02-06T22:31:43.164Z,37.08
2023-02-06T22:34:12.022Z,37.30
2023-02-06T22:36:40.529Z,36.22
2023-02-06T22:39:09.495Z,36.88
2023-02-06T22:41:39.576Z,37.10
2023-02-06T22:44:07.926Z,37.05
2023-02-06T22:46:38.884Z,38.67
2023-02-06T22:49:07.169Z,36.05
2023-02-06T22:51:35.453Z,33.65
2023-02-06T22:54:03.860Z,35.72
2023-02-06T22:56:36.251Z,35.35
2023-02-06T22:59:05.880Z,33.50
2023-02-06T23:01:35.472Z,34.22
2023-02-06T23:04:05.907Z,33.97
2023-02-06T23:06:34.855Z,32.20
2023-02-06T23:09:03.404Z,36.45
2023-02-06T23:11:32.292Z,33.78
2023-02-06T23:14:01.499Z,33.42
2023-02-06T23:16:30.123Z,32.72
2023-02-06T23:18:58.421Z,30.85
2023-02-06T23:21:28.162Z,31.30
2023-02-06T23:23:56.803Z,30.92
2023-02-06T23:26:25.058Z,31.00
2023-02-06T23:28:53.304Z,30.73
2023-02-06T23:31:21.503Z,30.92
2023-02-06T23:33:49.827Z,29.75
2023-02-06T23:36:19.757Z,30.90
2023-02-06T23:38:49.541Z,31.80
2023-02-06T23:41:19.046Z,30.77
2023-02-06T23:43:50.902Z,30.50
2023-02-06T23:46:20.203Z,27.83
2023-02-06T23:48:48.557Z,30.00
2023-02-06T23:51:16.986Z,28.60
2023-02-06T23:53:45.419Z,30.17
2023-02-06T23:56:16.789Z,30.88
2023-02-06T23:58:45.033Z,28.80
